sensor_id;sensor_type;location;lat;lon;timestamp;temperature;humidity
63202;DHT22;49296;48.188;11.566;2022-09-30T00:01:45;10.90;78.70
63202;DHT22;49296;48.188;11.566;2022-09-30T00:04:14;10.86;78.91
63202;DHT22;49296;48.188;11.566;2022-09-30T00:06:40;10.81;78.73
63202;DHT22;49296;48.188;11.566;2022-09-30T00:09:07;10.84;78.61
63202;DHT22;49296;48.188;11.566;2022-09-30T00:11:35;10.84;78.68
63202;DHT22;49296;48.188;11.566;2022-09-30T00:14:04;10.80;78.53
63202;DHT22;49296;48.188;11.566;2022-09-30T00:16:32;10.83;78.50
63202;DHT22;49296;48.188;11.566;2022-09-30T00:18:59;10.81;78.50
63202;DHT22;49296;48.188;11.566;2022-09-30T00:21:26;10.73;78.58
63202;DHT22;49296;48.188;11.566;2022-09-30T00:23:53;10.76;78.70
63202;DHT22;49296;48.188;11.566;2022-09-30T00:26:21;10.70;78.84
63202;DHT22;49296;48.188;11.566;2022-09-30T00:28:48;10.69;79.08
63202;DHT22;49296;48.188;11.566;2022-09-30T00:31:16;10.68;79.24
63202;DHT22;49296;48.188;11.566;2022-09-30T00:33:43;10.69;79.44
63202;DHT22;49296;48.188;11.566;2022-09-30T00:36:30;10.75;79.50
63202;DHT22;49296;48.188;11.566;2022-09-30T00:38:56;10.79;79.36
63202;DHT22;49296;48.188;11.566;2022-09-30T00:41:23;10.73;79.25
63202;DHT22;49296;48.188;11.566;2022-09-30T00:43:51;10.70;79.49
63202;DHT22;49296;48.188;11.566;2022-09-30T00:46:21;10.70;79.61
63202;DHT22;49296;48.188;11.566;2022-09-30T00:48:50;10.61;79.53
63202;DHT22;49296;48.188;11.566;2022-09-30T00:51:26;10.63;79.38
63202;DHT22;49296;48.188;11.566;2022-09-30T00:53:54;10.66;79.16
63202;DHT22;49296;48.188;11.566;2022-09-30T00:56:23;10.65;79.20
63202;DHT22;49296;48.188;11.566;2022-09-30T00:58:52;10.65;79.27
63202;DHT22;49296;48.188;11.566;2022-09-30T01:01:21;10.70;79.33
63202;DHT22;49296;48.188;11.566;2022-09-30T01:03:49;10.76;79.31
63202;DHT22;49296;48.188;11.566;2022-09-30T01:06:17;10.73;79.13
63202;DHT22;49296;48.188;11.566;2022-09-30T01:08:44;10.72;79.02
63202;DHT22;49296;48.188;11.566;2022-09-30T01:11:12;10.69;79.06
63202;DHT22;49296;48.188;11.566;2022-09-30T01:13:39;10.70;79.06
63202;DHT22;49296;48.188;11.566;2022-09-30T01:16:14;10.69;79.21
63202;DHT22;49296;48.188;11.566;2022-09-30T01:18:52;10.70;79.40
63202;DHT22;49296;48.188;11.566;2022-09-30T01:21:28;10.75;79.36
63202;DHT22;49296;48.188;11.566;2022-09-30T01:24:06;10.79;79.21
63202;DHT22;49296;48.188;11.566;2022-09-30T01:26:41;10.80;79.15
63202;DHT22;49296;48.188;11.566;2022-09-30T01:32:04;10.70;79.15
63202;DHT22;49296;48.188;11.566;2022-09-30T01:34:37;10.75;78.87
63202;DHT22;49296;48.188;11.566;2022-09-30T01:37:08;10.76;78.93
63202;DHT22;49296;48.188;11.566;2022-09-30T01:39:40;10.79;78.99
63202;DHT22;49296;48.188;11.566;2022-09-30T01:42:15;10.83;78.95
63202;DHT22;49296;48.188;11.566;2022-09-30T01:44:46;10.84;79.04
63202;DHT22;49296;48.188;11.566;2022-09-30T01:47:16;10.89;78.95
63202;DHT22;49296;48.188;11.566;2022-09-30T01:49:46;10.90;78.78
63202;DHT22;49296;48.188;11.566;2022-09-30T01:52:15;10.87;78.91
63202;DHT22;49296;48.188;11.566;2022-09-30T01:54:42;10.83;78.76
63202;DHT22;49296;48.188;11.566;2022-09-30T01:57:13;10.81;78.90
63202;DHT22;49296;48.188;11.566;2022-09-30T01:59:44;10.84;78.63
63202;DHT22;49296;48.188;11.566;2022-09-30T02:02:12;10.86;78.35
63202;DHT22;49296;48.188;11.566;2022-09-30T02:04:44;10.87;78.44
63202;DHT22;49296;48.188;11.566;2022-09-30T02:07:12;10.86;78.51
63202;DHT22;49296;48.188;11.566;2022-09-30T02:09:41;10.87;78.46
63202;DHT22;49296;48.188;11.566;2022-09-30T02:12:12;10.86;78.39
63202;DHT22;49296;48.188;11.566;2022-09-30T02:14:41;10.89;78.25
63202;DHT22;49296;48.188;11.566;2022-09-30T02:17:10;10.92;78.36
63202;DHT22;49296;48.188;11.566;2022-09-30T02:19:39;10.92;78.17
63202;DHT22;49296;48.188;11.566;2022-09-30T02:22:09;10.92;78.28
63202;DHT22;49296;48.188;11.566;2022-09-30T02:24:37;10.89;78.21
63202;DHT22;49296;48.188;11.566;2022-09-30T02:27:05;10.90;78.21
63202;DHT22;49296;48.188;11.566;2022-09-30T02:29:38;10.90;78.22
63202;DHT22;49296;48.188;11.566;2022-09-30T02:32:06;10.87;78.36
63202;DHT22;49296;48.188;11.566;2022-09-30T02:34:36;10.89;78.46
63202;DHT22;49296;48.188;11.566;2022-09-30T02:37:05;10.89;78.55
63202;DHT22;49296;48.188;11.566;2022-09-30T02:39:34;10.83;78.38
63202;DHT22;49296;48.188;11.566;2022-09-30T02:42:04;10.79;78.07
63202;DHT22;49296;48.188;11.566;2022-09-30T02:44:33;10.76;78.14
63202;DHT22;49296;48.188;11.566;2022-09-30T02:47:03;10.73;78.19
63202;DHT22;49296;48.188;11.566;2022-09-30T02:49:35;10.73;78.52
63202;DHT22;49296;48.188;11.566;2022-09-30T02:52:06;10.75;78.41
63202;DHT22;49296;48.188;11.566;2022-09-30T02:54:40;10.79;78.60
63202;DHT22;49296;48.188;11.566;2022-09-30T02:57:13;10.77;78.57
63202;DHT22;49296;48.188;11.566;2022-09-30T02:59:43;10.79;78.41
63202;DHT22;49296;48.188;11.566;2022-09-30T03:02:10;10.79;78.25
63202;DHT22;49296;48.188;11.566;2022-09-30T03:04:36;10.79;78.34
63202;DHT22;49296;48.188;11.566;2022-09-30T03:07:05;10.80;78.16
63202;DHT22;49296;48.188;11.566;2022-09-30T03:09:33;10.83;78.12
63202;DHT22;49296;48.188;11.566;2022-09-30T03:12:03;10.75;78.21
63202;DHT22;49296;48.188;11.566;2022-09-30T03:14:38;10.77;78.30
63202;DHT22;49296;48.188;11.566;2022-09-30T03:17:12;10.79;78.40
63202;DHT22;49296;48.188;11.566;2022-09-30T03:19:58;10.76;78.34
63202;DHT22;49296;48.188;11.566;2022-09-30T03:22:40;10.75;78.34
63202;DHT22;49296;48.188;11.566;2022-09-30T03:25:16;10.75;78.01
63202;DHT22;49296;48.188;11.566;2022-09-30T03:27:50;10.75;78.19
63202;DHT22;49296;48.188;11.566;2022-09-30T03:30:20;10.76;78.00
63202;DHT22;49296;48.188;11.566;2022-09-30T03:35:35;10.76;78.27
63202;DHT22;49296;48.188;11.566;2022-09-30T03:38:05;10.75;78.34
63202;DHT22;49296;48.188;11.566;2022-09-30T03:40:37;10.73;78.37
63202;DHT22;49296;48.188;11.566;2022-09-30T03:43:10;10.72;78.13
63202;DHT22;49296;48.188;11.566;2022-09-30T03:45:38;10.63;78.35
63202;DHT22;49296;48.188;11.566;2022-09-30T03:48:07;10.68;77.92
63202;DHT22;49296;48.188;11.566;2022-09-30T03:50:36;10.72;77.92
63202;DHT22;49296;48.188;11.566;2022-09-30T03:53:06;10.72;77.49
63202;DHT22;49296;48.188;11.566;2022-09-30T03:55:34;10.76;77.84
63202;DHT22;49296;48.188;11.566;2022-09-30T03:58:10;10.76;77.83
63202;DHT22;49296;48.188;11.566;2022-09-30T04:00:36;10.75;77.93
63202;DHT22;49296;48.188;11.566;2022-09-30T04:03:03;10.75;78.02
63202;DHT22;49296;48.188;11.566;2022-09-30T04:05:30;10.77;77.96
63202;DHT22;49296;48.188;11.566;2022-09-30T04:07:56;10.80;77.90
63202;DHT22;49296;48.188;11.566;2022-09-30T04:10:23;10.76;77.75
63202;DHT22;49296;48.188;11.566;2022-09-30T04:12:52;10.73;77.76
63202;DHT22;49296;48.188;11.566;2022-09-30T04:15:19;10.73;77.87
63202;DHT22;49296;48.188;11.566;2022-09-30T04:17:46;10.75;77.76
63202;DHT22;49296;48.188;11.566;2022-09-30T04:20:13;10.69;78.08
63202;DHT22;49296;48.188;11.566;2022-09-30T04:22:39;10.68;77.99
63202;DHT22;49296;48.188;11.566;2022-09-30T04:25:06;10.72;77.86
63202;DHT22;49296;48.188;11.566;2022-09-30T04:27:33;10.76;77.81
63202;DHT22;49296;48.188;11.566;2022-09-30T04:29:59;10.75;77.86
63202;DHT22;49296;48.188;11.566;2022-09-30T04:32:27;10.72;77.87
63202;DHT22;49296;48.188;11.566;2022-09-30T04:34:54;10.70;77.79
63202;DHT22;49296;48.188;11.566;2022-09-30T04:37:20;10.73;77.82
63202;DHT22;49296;48.188;11.566;2022-09-30T04:39:48;10.72;78.03
63202;DHT22;49296;48.188;11.566;2022-09-30T04:42:15;10.70;77.86
63202;DHT22;49296;48.188;11.566;2022-09-30T04:44:42;10.66;78.03
63202;DHT22;49296;48.188;11.566;2022-09-30T04:47:09;10.66;78.04
63202;DHT22;49296;48.188;11.566;2022-09-30T04:49:37;10.63;78.04
63202;DHT22;49296;48.188;11.566;2022-09-30T04:52:03;10.61;78.13
63202;DHT22;49296;48.188;11.566;2022-09-30T04:54:30;10.58;78.08
63202;DHT22;49296;48.188;11.566;2022-09-30T04:56:56;10.62;77.91
63202;DHT22;49296;48.188;11.566;2022-09-30T04:59:23;10.55;78.04
63202;DHT22;49296;48.188;11.566;2022-09-30T05:01:49;10.55;78.09
63202;DHT22;49296;48.188;11.566;2022-09-30T05:04:16;10.53;78.11
63202;DHT22;49296;48.188;11.566;2022-09-30T05:06:44;10.51;78.15
63202;DHT22;49296;48.188;11.566;2022-09-30T05:09:10;10.48;78.36
63202;DHT22;49296;48.188;11.566;2022-09-30T05:11:37;10.46;78.27
63202;DHT22;49296;48.188;11.566;2022-09-30T05:14:06;10.46;78.30
63202;DHT22;49296;48.188;11.566;2022-09-30T05:16:34;10.49;78.28
63202;DHT22;49296;48.188;11.566;2022-09-30T05:19:00;10.46;78.38
63202;DHT22;49296;48.188;11.566;2022-09-30T05:21:27;10.49;78.87
63202;DHT22;49296;48.188;11.566;2022-09-30T05:23:55;10.53;78.97
63202;DHT22;49296;48.188;11.566;2022-09-30T05:26:22;10.56;78.68
63202;DHT22;49296;48.188;11.566;2022-09-30T05:28:48;10.56;78.36
63202;DHT22;49296;48.188;11.566;2022-09-30T05:31:15;10.59;78.12
63202;DHT22;49296;48.188;11.566;2022-09-30T05:33:41;10.58;78.09
63202;DHT22;49296;48.188;11.566;2022-09-30T05:36:11;10.58;78.30
63202;DHT22;49296;48.188;11.566;2022-09-30T05:38:38;10.59;78.12
63202;DHT22;49296;48.188;11.566;2022-09-30T05:41:06;10.53;78.12
63202;DHT22;49296;48.188;11.566;2022-09-30T05:43:35;10.52;78.29
63202;DHT22;49296;48.188;11.566;2022-09-30T05:46:02;10.56;78.12
63202;DHT22;49296;48.188;11.566;2022-09-30T05:48:28;10.58;78.13
63202;DHT22;49296;48.188;11.566;2022-09-30T05:50:55;10.55;78.25
63202;DHT22;49296;48.188;11.566;2022-09-30T05:53:22;10.63;78.04
63202;DHT22;49296;48.188;11.566;2022-09-30T05:55:49;10.63;77.91
63202;DHT22;49296;48.188;11.566;2022-09-30T05:58:17;10.65;77.91
63202;DHT22;49296;48.188;11.566;2022-09-30T06:00:44;10.55;78.19
63202;DHT22;49296;48.188;11.566;2022-09-30T06:03:11;10.65;77.94
63202;DHT22;49296;48.188;11.566;2022-09-30T06:05:38;10.65;77.72
63202;DHT22;49296;48.188;11.566;2022-09-30T06:08:06;10.70;77.82
63202;DHT22;49296;48.188;11.566;2022-09-30T06:10:39;10.66;77.96
63202;DHT22;49296;48.188;11.566;2022-09-30T06:13:06;10.62;78.48
63202;DHT22;49296;48.188;11.566;2022-09-30T06:15:33;10.73;78.17
63202;DHT22;49296;48.188;11.566;2022-09-30T06:18:01;10.79;77.45
63202;DHT22;49296;48.188;11.566;2022-09-30T06:20:27;10.76;77.55
63202;DHT22;49296;48.188;11.566;2022-09-30T06:22:53;10.70;77.61
63202;DHT22;49296;48.188;11.566;2022-09-30T06:25:20;10.86;77.25
63202;DHT22;49296;48.188;11.566;2022-09-30T06:27:47;10.86;77.23
63202;DHT22;49296;48.188;11.566;2022-09-30T06:30:14;10.95;77.32
63202;DHT22;49296;48.188;11.566;2022-09-30T06:32:42;10.96;77.27
63202;DHT22;49296;48.188;11.566;2022-09-30T06:35:09;10.97;77.31
63202;DHT22;49296;48.188;11.566;2022-09-30T06:37:36;10.89;76.86
63202;DHT22;49296;48.188;11.566;2022-09-30T06:40:03;10.80;77.03
63202;DHT22;49296;48.188;11.566;2022-09-30T06:42:29;10.92;77.04
63202;DHT22;49296;48.188;11.566;2022-09-30T06:44:55;10.90;77.32
63202;DHT22;49296;48.188;11.566;2022-09-30T06:47:22;10.93;77.14
63202;DHT22;49296;48.188;11.566;2022-09-30T06:49:50;11.01;76.74
63202;DHT22;49296;48.188;11.566;2022-09-30T06:52:17;11.01;76.67
63202;DHT22;49296;48.188;11.566;2022-09-30T06:54:44;11.10;76.32
63202;DHT22;49296;48.188;11.566;2022-09-30T06:57:11;11.13;76.58
63202;DHT22;49296;48.188;11.566;2022-09-30T06:59:37;11.07;76.51
63202;DHT22;49296;48.188;11.566;2022-09-30T07:02:03;11.20;76.07
63202;DHT22;49296;48.188;11.566;2022-09-30T07:04:30;11.17;76.11
63202;DHT22;49296;48.188;11.566;2022-09-30T07:06:58;11.21;75.56
63202;DHT22;49296;48.188;11.566;2022-09-30T07:09:24;11.30;75.33
63202;DHT22;49296;48.188;11.566;2022-09-30T07:11:51;11.25;75.96
63202;DHT22;49296;48.188;11.566;2022-09-30T07:14:17;11.36;75.89
63202;DHT22;49296;48.188;11.566;2022-09-30T07:16:43;11.35;76.36
63202;DHT22;49296;48.188;11.566;2022-09-30T07:19:10;11.38;76.35
63202;DHT22;49296;48.188;11.566;2022-09-30T07:21:37;11.41;76.51
63202;DHT22;49296;48.188;11.566;2022-09-30T07:24:04;11.41;76.53
63202;DHT22;49296;48.188;11.566;2022-09-30T07:26:31;11.42;76.05
63202;DHT22;49296;48.188;11.566;2022-09-30T07:28:58;11.51;75.92
63202;DHT22;49296;48.188;11.566;2022-09-30T07:31:25;11.52;75.84
63202;DHT22;49296;48.188;11.566;2022-09-30T07:33:52;11.54;75.86
63202;DHT22;49296;48.188;11.566;2022-09-30T07:36:21;11.52;76.12
63202;DHT22;49296;48.188;11.566;2022-09-30T07:38:52;11.54;76.45
63202;DHT22;49296;48.188;11.566;2022-09-30T07:41:21;11.68;75.93
63202;DHT22;49296;48.188;11.566;2022-09-30T07:43:51;11.80;75.52
63202;DHT22;49296;48.188;11.566;2022-09-30T07:46:18;11.83;74.96
63202;DHT22;49296;48.188;11.566;2022-09-30T07:48:46;11.89;73.89
63202;DHT22;49296;48.188;11.566;2022-09-30T07:51:17;11.83;73.56
63202;DHT22;49296;48.188;11.566;2022-09-30T07:56:22;11.86;73.59
63202;DHT22;49296;48.188;11.566;2022-09-30T07:58:52;11.87;73.62
63202;DHT22;49296;48.188;11.566;2022-09-30T08:01:18;11.87;72.73
63202;DHT22;49296;48.188;11.566;2022-09-30T08:03:45;11.94;72.30
63202;DHT22;49296;48.188;11.566;2022-09-30T08:06:12;11.98;72.41
63202;DHT22;49296;48.188;11.566;2022-09-30T08:08:40;11.97;71.18
63202;DHT22;49296;48.188;11.566;2022-09-30T08:11:08;12.04;71.08
63202;DHT22;49296;48.188;11.566;2022-09-30T08:13:36;12.01;71.64
63202;DHT22;49296;48.188;11.566;2022-09-30T08:16:03;12.03;72.01
63202;DHT22;49296;48.188;11.566;2022-09-30T08:18:30;11.98;72.52
63202;DHT22;49296;48.188;11.566;2022-09-30T08:20:56;12.03;72.65
63202;DHT22;49296;48.188;11.566;2022-09-30T08:23:27;12.16;72.21
63202;DHT22;49296;48.188;11.566;2022-09-30T08:25:58;12.18;71.65
63202;DHT22;49296;48.188;11.566;2022-09-30T08:28:25;12.28;71.06
63202;DHT22;49296;48.188;11.566;2022-09-30T08:30:53;12.24;71.56
63202;DHT22;49296;48.188;11.566;2022-09-30T08:33:19;12.32;70.51
63202;DHT22;49296;48.188;11.566;2022-09-30T08:35:45;12.39;70.46
63202;DHT22;49296;48.188;11.566;2022-09-30T08:38:12;12.39;70.45
63202;DHT22;49296;48.188;11.566;2022-09-30T08:40:43;11.95;71.02
63202;DHT22;49296;48.188;11.566;2022-09-30T08:43:22;12.25;70.75
63202;DHT22;49296;48.188;11.566;2022-09-30T08:45:56;12.34;69.49
63202;DHT22;49296;48.188;11.566;2022-09-30T08:48:28;12.45;66.74
63202;DHT22;49296;48.188;11.566;2022-09-30T08:51:00;12.59;67.14
63202;DHT22;49296;48.188;11.566;2022-09-30T08:53:30;12.65;67.46
63202;DHT22;49296;48.188;11.566;2022-09-30T08:55:58;12.80;67.33
63202;DHT22;49296;48.188;11.566;2022-09-30T08:58:27;12.73;69.12
63202;DHT22;49296;48.188;11.566;2022-09-30T09:00:56;12.83;69.59
63202;DHT22;49296;48.188;11.566;2022-09-30T09:03:24;12.86;69.49
63202;DHT22;49296;48.188;11.566;2022-09-30T09:05:53;12.96;68.96
63202;DHT22;49296;48.188;11.566;2022-09-30T09:08:24;12.91;69.61
63202;DHT22;49296;48.188;11.566;2022-09-30T09:10:53;13.00;69.40
63202;DHT22;49296;48.188;11.566;2022-09-30T09:13:27;12.96;68.93
63202;DHT22;49296;48.188;11.566;2022-09-30T09:16:00;12.93;70.03
63202;DHT22;49296;48.188;11.566;2022-09-30T09:18:40;12.97;70.27
63202;DHT22;49296;48.188;11.566;2022-09-30T09:21:16;13.11;70.07
63202;DHT22;49296;48.188;11.566;2022-09-30T09:23:47;13.24;69.08
63202;DHT22;49296;48.188;11.566;2022-09-30T09:26:14;13.25;68.37
63202;DHT22;49296;48.188;11.566;2022-09-30T09:28:41;13.35;68.22
63202;DHT22;49296;48.188;11.566;2022-09-30T09:31:12;13.29;68.81
63202;DHT22;49296;48.188;11.566;2022-09-30T09:33:41;13.28;69.67
63202;DHT22;49296;48.188;11.566;2022-09-30T09:36:11;13.32;70.19
63202;DHT22;49296;48.188;11.566;2022-09-30T09:38:49;13.26;67.38
63202;DHT22;49296;48.188;11.566;2022-09-30T09:41:20;13.31;68.02
63202;DHT22;49296;48.188;11.566;2022-09-30T09:43:50;13.36;68.27
63202;DHT22;49296;48.188;11.566;2022-09-30T09:46:25;13.28;67.59
63202;DHT22;49296;48.188;11.566;2022-09-30T09:51:38;13.22;68.67
63202;DHT22;49296;48.188;11.566;2022-09-30T09:54:05;13.19;69.47
63202;DHT22;49296;48.188;11.566;2022-09-30T09:56:34;13.25;69.77
63202;DHT22;49296;48.188;11.566;2022-09-30T09:59:09;13.28;69.82
63202;DHT22;49296;48.188;11.566;2022-09-30T10:01:39;13.21;68.85
63202;DHT22;49296;48.188;11.566;2022-09-30T10:04:06;13.26;68.49
63202;DHT22;49296;48.188;11.566;2022-09-30T10:06:41;13.43;68.27
63202;DHT22;49296;48.188;11.566;2022-09-30T10:09:08;13.55;67.70
63202;DHT22;49296;48.188;11.566;2022-09-30T10:11:46;13.62;68.04
63202;DHT22;49296;48.188;11.566;2022-09-30T10:14:15;13.70;68.41
63202;DHT22;49296;48.188;11.566;2022-09-30T10:16:46;13.86;67.88
63202;DHT22;49296;48.188;11.566;2022-09-30T10:19:17;13.74;67.12
63202;DHT22;49296;48.188;11.566;2022-09-30T10:21:45;13.70;67.27
63202;DHT22;49296;48.188;11.566;2022-09-30T10:24:19;13.81;67.00
63202;DHT22;49296;48.188;11.566;2022-09-30T10:26:45;13.91;67.59
63202;DHT22;49296;48.188;11.566;2022-09-30T10:29:22;14.05;66.60
63202;DHT22;49296;48.188;11.566;2022-09-30T10:31:51;14.05;65.98
63202;DHT22;49296;48.188;11.566;2022-09-30T10:34:21;14.15;65.84
63202;DHT22;49296;48.188;11.566;2022-09-30T10:36:50;14.20;65.55
63202;DHT22;49296;48.188;11.566;2022-09-30T10:39:19;14.04;67.77
63202;DHT22;49296;48.188;11.566;2022-09-30T10:41:47;14.00;67.63
63202;DHT22;49296;48.188;11.566;2022-09-30T10:44:14;14.01;67.93
63202;DHT22;49296;48.188;11.566;2022-09-30T10:46:42;14.14;67.81
63202;DHT22;49296;48.188;11.566;2022-09-30T10:52:00;14.10;67.01
63202;DHT22;49296;48.188;11.566;2022-09-30T10:57:19;13.98;66.44
63202;DHT22;49296;48.188;11.566;2022-09-30T10:59:46;14.03;66.28
63202;DHT22;49296;48.188;11.566;2022-09-30T11:02:24;14.11;65.94
63202;DHT22;49296;48.188;11.566;2022-09-30T11:04:54;14.11;65.77
63202;DHT22;49296;48.188;11.566;2022-09-30T11:07:26;14.21;65.26
63202;DHT22;49296;48.188;11.566;2022-09-30T11:09:55;14.25;66.48
63202;DHT22;49296;48.188;11.566;2022-09-30T11:12:25;14.43;66.12
63202;DHT22;49296;48.188;11.566;2022-09-30T11:14:57;14.45;65.72
63202;DHT22;49296;48.188;11.566;2022-09-30T11:17:27;14.48;66.42
63202;DHT22;49296;48.188;11.566;2022-09-30T11:19:58;14.55;66.15
63202;DHT22;49296;48.188;11.566;2022-09-30T11:22:30;14.55;65.21
63202;DHT22;49296;48.188;11.566;2022-09-30T11:24:58;14.56;64.99
63202;DHT22;49296;48.188;11.566;2022-09-30T11:27:27;14.46;65.41
63202;DHT22;49296;48.188;11.566;2022-09-30T11:29:59;14.36;65.46
63202;DHT22;49296;48.188;11.566;2022-09-30T11:32:34;14.26;65.83
63202;DHT22;49296;48.188;11.566;2022-09-30T11:35:07;14.26;65.88
63202;DHT22;49296;48.188;11.566;2022-09-30T11:37:42;14.20;65.60
63202;DHT22;49296;48.188;11.566;2022-09-30T11:40:23;14.01;65.69
63202;DHT22;49296;48.188;11.566;2022-09-30T11:42:53;14.04;65.41
63202;DHT22;49296;48.188;11.566;2022-09-30T11:45:24;14.03;66.35
63202;DHT22;49296;48.188;11.566;2022-09-30T11:47:58;13.91;65.82
63202;DHT22;49296;48.188;11.566;2022-09-30T11:50:31;13.86;66.23
63202;DHT22;49296;48.188;11.566;2022-09-30T11:53:02;13.87;67.02
63202;DHT22;49296;48.188;11.566;2022-09-30T11:55:36;13.87;67.07
63202;DHT22;49296;48.188;11.566;2022-09-30T11:58:06;13.73;67.78
63202;DHT22;49296;48.188;11.566;2022-09-30T12:00:34;13.67;67.87
63202;DHT22;49296;48.188;11.566;2022-09-30T12:03:04;13.69;67.99
63202;DHT22;49296;48.188;11.566;2022-09-30T12:05:34;13.76;67.54
63202;DHT22;49296;48.188;11.566;2022-09-30T12:08:06;13.69;67.35
63202;DHT22;49296;48.188;11.566;2022-09-30T12:10:37;13.74;67.95
63202;DHT22;49296;48.188;11.566;2022-09-30T12:13:07;13.77;68.25
63202;DHT22;49296;48.188;11.566;2022-09-30T12:15:36;13.90;68.22
63202;DHT22;49296;48.188;11.566;2022-09-30T12:18:04;13.94;68.54
63202;DHT22;49296;48.188;11.566;2022-09-30T12:20:35;13.94;67.78
63202;DHT22;49296;48.188;11.566;2022-09-30T12:23:07;14.00;69.01
63202;DHT22;49296;48.188;11.566;2022-09-30T12:25:36;14.13;68.57
63202;DHT22;49296;48.188;11.566;2022-09-30T12:28:05;14.18;67.05
63202;DHT22;49296;48.188;11.566;2022-09-30T12:30:47;14.17;66.21
63202;DHT22;49296;48.188;11.566;2022-09-30T12:33:25;14.21;66.29
63202;DHT22;49296;48.188;11.566;2022-09-30T12:36:06;14.35;66.06
63202;DHT22;49296;48.188;11.566;2022-09-30T12:38:44;14.40;66.21
63202;DHT22;49296;48.188;11.566;2022-09-30T12:41:18;14.38;66.05
63202;DHT22;49296;48.188;11.566;2022-09-30T12:44:01;14.21;67.38
63202;DHT22;49296;48.188;11.566;2022-09-30T12:46:45;14.48;66.83
63202;DHT22;49296;48.188;11.566;2022-09-30T12:49:14;14.69;65.42
63202;DHT22;49296;48.188;11.566;2022-09-30T12:51:44;14.72;64.63
63202;DHT22;49296;48.188;11.566;2022-09-30T12:54:16;14.85;64.51
63202;DHT22;49296;48.188;11.566;2022-09-30T12:56:44;14.79;66.54
63202;DHT22;49296;48.188;11.566;2022-09-30T12:59:11;14.74;66.74
63202;DHT22;49296;48.188;11.566;2022-09-30T13:01:38;14.85;65.42
63202;DHT22;49296;48.188;11.566;2022-09-30T13:04:14;14.93;65.22
63202;DHT22;49296;48.188;11.566;2022-09-30T13:09:30;14.84;64.33
63202;DHT22;49296;48.188;11.566;2022-09-30T13:12:14;14.88;63.89
63202;DHT22;49296;48.188;11.566;2022-09-30T13:14:40;14.88;63.75
63202;DHT22;49296;48.188;11.566;2022-09-30T13:17:26;14.91;64.73
63202;DHT22;49296;48.188;11.566;2022-09-30T13:19:53;14.81;63.60
63202;DHT22;49296;48.188;11.566;2022-09-30T13:25:21;14.79;65.14
63202;DHT22;49296;48.188;11.566;2022-09-30T13:27:49;14.81;64.74
63202;DHT22;49296;48.188;11.566;2022-09-30T13:30:30;14.66;63.90
63202;DHT22;49296;48.188;11.566;2022-09-30T13:33:04;14.69;63.73
63202;DHT22;49296;48.188;11.566;2022-09-30T13:35:30;14.55;65.26
63202;DHT22;49296;48.188;11.566;2022-09-30T13:38:09;14.50;66.10
63202;DHT22;49296;48.188;11.566;2022-09-30T13:40:37;14.72;65.62
63202;DHT22;49296;48.188;11.566;2022-09-30T13:43:06;14.67;65.08
63202;DHT22;49296;48.188;11.566;2022-09-30T13:45:35;14.67;64.53
63202;DHT22;49296;48.188;11.566;2022-09-30T13:48:08;15.00;65.20
63202;DHT22;49296;48.188;11.566;2022-09-30T13:50:36;15.31;63.96
63202;DHT22;49296;48.188;11.566;2022-09-30T13:53:10;15.34;63.67
63202;DHT22;49296;48.188;11.566;2022-09-30T13:55:40;15.45;63.41
63202;DHT22;49296;48.188;11.566;2022-09-30T13:58:15;15.40;62.89
63202;DHT22;49296;48.188;11.566;2022-09-30T14:00:46;15.47;63.81
63202;DHT22;49296;48.188;11.566;2022-09-30T14:03:29;15.40;63.96
63202;DHT22;49296;48.188;11.566;2022-09-30T14:06:01;15.39;62.76
63202;DHT22;49296;48.188;11.566;2022-09-30T14:08:46;15.27;63.45
63202;DHT22;49296;48.188;11.566;2022-09-30T14:14:02;15.25;62.44
63202;DHT22;49296;48.188;11.566;2022-09-30T14:16:39;15.19;62.35
63202;DHT22;49296;48.188;11.566;2022-09-30T14:21:57;15.56;61.51
63202;DHT22;49296;48.188;11.566;2022-09-30T14:24:28;15.74;61.24
63202;DHT22;49296;48.188;11.566;2022-09-30T14:27:01;15.66;61.14
63202;DHT22;49296;48.188;11.566;2022-09-30T14:29:35;15.73;61.67
63202;DHT22;49296;48.188;11.566;2022-09-30T14:32:09;16.16;60.68
63202;DHT22;49296;48.188;11.566;2022-09-30T14:34:35;16.76;59.57
63202;DHT22;49296;48.188;11.566;2022-09-30T14:37:02;16.81;60.10
63202;DHT22;49296;48.188;11.566;2022-09-30T14:39:29;16.33;60.88
63202;DHT22;49296;48.188;11.566;2022-09-30T14:41:57;16.41;60.80
63202;DHT22;49296;48.188;11.566;2022-09-30T14:44:26;16.28;60.60
63202;DHT22;49296;48.188;11.566;2022-09-30T14:46:55;16.05;61.59
63202;DHT22;49296;48.188;11.566;2022-09-30T14:49:25;15.93;61.50
63202;DHT22;49296;48.188;11.566;2022-09-30T14:51:57;15.79;60.90
63202;DHT22;49296;48.188;11.566;2022-09-30T14:54:25;15.70;62.81
63202;DHT22;49296;48.188;11.566;2022-09-30T14:56:53;15.47;63.90
63202;DHT22;49296;48.188;11.566;2022-09-30T14:59:20;15.36;63.64
63202;DHT22;49296;48.188;11.566;2022-09-30T15:01:49;15.29;63.58
63202;DHT22;49296;48.188;11.566;2022-09-30T15:04:21;15.28;63.60
63202;DHT22;49296;48.188;11.566;2022-09-30T15:06:49;15.27;63.54
63202;DHT22;49296;48.188;11.566;2022-09-30T15:09:17;15.12;62.77
63202;DHT22;49296;48.188;11.566;2022-09-30T15:11:43;15.07;62.98
63202;DHT22;49296;48.188;11.566;2022-09-30T15:14:12;14.79;63.41
63202;DHT22;49296;48.188;11.566;2022-09-30T15:16:45;14.91;63.48
63202;DHT22;49296;48.188;11.566;2022-09-30T15:19:14;14.91;64.15
63202;DHT22;49296;48.188;11.566;2022-09-30T15:21:43;14.98;64.46
63202;DHT22;49296;48.188;11.566;2022-09-30T15:24:12;14.93;64.39
63202;DHT22;49296;48.188;11.566;2022-09-30T15:26:39;14.97;64.78
63202;DHT22;49296;48.188;11.566;2022-09-30T15:29:07;15.00;64.90
63202;DHT22;49296;48.188;11.566;2022-09-30T15:31:36;14.95;65.00
63202;DHT22;49296;48.188;11.566;2022-09-30T15:34:12;14.88;64.95
63202;DHT22;49296;48.188;11.566;2022-09-30T15:36:40;14.80;64.42
63202;DHT22;49296;48.188;11.566;2022-09-30T15:39:17;14.85;63.87
63202;DHT22;49296;48.188;11.566;2022-09-30T15:41:45;14.90;63.60
63202;DHT22;49296;48.188;11.566;2022-09-30T15:44:14;14.83;63.49
63202;DHT22;49296;48.188;11.566;2022-09-30T15:46:40;14.88;63.15
63202;DHT22;49296;48.188;11.566;2022-09-30T15:49:32;14.83;63.03
63202;DHT22;49296;48.188;11.566;2022-09-30T15:52:19;14.80;63.86
63202;DHT22;49296;48.188;11.566;2022-09-30T15:54:47;14.80;64.28
63202;DHT22;49296;48.188;11.566;2022-09-30T15:57:35;14.79;64.88
63202;DHT22;49296;48.188;11.566;2022-09-30T16:00:04;14.76;64.92